KQA606 HKJK-HKMO
Flight info
| Callsign | KQA606 |
|---|---|
| Flight time | N/A |
| Altitude | 31000 |
| Route | ATUDU1D UVOVA UQ135 NEREV NEREV3A |
| Aircraft | B738/M-SDE2E3FGHIRWXY/LB1 |
Departure
| Time | 2026-05-05 13:23 |
|---|---|
| Airport | Jomo Kenyatta International Airport (HKJK) |
Arrival
| Time | N/A |
|---|---|
| Airport | Moi International Airport (HKMO) |
| Time | Latitude | Longitude | Altitude | Speed | Heading |
|---|---|---|---|---|---|
| 2026-05-05 13:09 | -1.32973 | 36.92722 | 5323 ft | 0 kts | 341° |
| 2026-05-05 13:18 | -1.32970 | 36.92721 | 5323 ft | 1 kts | 341° |
| 2026-05-05 13:18 | -1.32953 | 36.92718 | 5316 ft | 4 kts | 5° |
| 2026-05-05 13:18 | -1.32923 | 36.92736 | 5317 ft | 7 kts | 25° |
| 2026-05-05 13:18 | -1.32873 | 36.92723 | 5321 ft | 9 kts | 323° |
| 2026-05-05 13:19 | -1.32822 | 36.92671 | 5321 ft | 12 kts | 308° |
| 2026-05-05 13:19 | -1.32780 | 36.92592 | 5318 ft | 14 kts | 289° |
| 2026-05-05 13:19 | -1.32765 | 36.92488 | 5321 ft | 16 kts | 268° |
| 2026-05-05 13:19 | -1.32796 | 36.92375 | 5316 ft | 17 kts | 244° |
| 2026-05-05 13:20 | -1.32856 | 36.92278 | 5319 ft | 16 kts | 257° |
| 2026-05-05 13:20 | -1.32794 | 36.92197 | 5321 ft | 15 kts | 301° |
| 2026-05-05 13:20 | -1.32824 | 36.92105 | 5322 ft | 14 kts | 234° |
| 2026-05-05 13:20 | -1.32881 | 36.92027 | 5323 ft | 14 kts | 234° |
| 2026-05-05 13:21 | -1.32937 | 36.91951 | 5332 ft | 13 kts | 233° |
| 2026-05-05 13:21 | -1.32991 | 36.91878 | 5331 ft | 13 kts | 237° |
| 2026-05-05 13:21 | -1.32973 | 36.91802 | 5338 ft | 12 kts | 322° |
| 2026-05-05 13:21 | -1.32902 | 36.91752 | 5337 ft | 13 kts | 324° |
| 2026-05-05 13:22 | -1.32822 | 36.91694 | 5337 ft | 15 kts | 323° |
| 2026-05-05 13:22 | -1.32730 | 36.91680 | 5339 ft | 17 kts | 42° |
| 2026-05-05 13:22 | -1.32587 | 36.91871 | 5328 ft | 65 kts | 54° |
| 2026-05-05 13:22 | -1.32180 | 36.92427 | 5315 ft | 130 kts | 54° |
| 2026-05-05 13:23 | -1.31562 | 36.93281 | 5450 ft | 169 kts | 55° |
| 2026-05-05 13:23 | -1.30835 | 36.94248 | 6147 ft | 176 kts | 53° |
| 2026-05-05 13:23 | -1.30176 | 36.95265 | 6896 ft | 178 kts | 78° |
| 2026-05-05 13:23 | -1.30069 | 36.96481 | 7639 ft | 174 kts | 86° |
| 2026-05-05 13:24 | -1.29936 | 36.97718 | 8298 ft | 183 kts | 85° |
| 2026-05-05 13:24 | -1.29778 | 36.99079 | 8549 ft | 211 kts | 84° |
| 2026-05-05 13:24 | -1.29597 | 37.00620 | 8711 ft | 236 kts | 84° |
| 2026-05-05 13:24 | -1.29394 | 37.02337 | 8900 ft | 261 kts | 83° |
| 2026-05-05 13:25 | -1.29169 | 37.04235 | 9172 ft | 285 kts | 83° |
| 2026-05-05 13:25 | -1.28934 | 37.06229 | 9892 ft | 292 kts | 83° |
| 2026-05-05 13:25 | -1.28693 | 37.08261 | 10635 ft | 297 kts | 83° |
| 2026-05-05 13:25 | -1.28453 | 37.10294 | 11397 ft | 300 kts | 82° |
| 2026-05-05 13:26 | -1.28207 | 37.12374 | 12154 ft | 303 kts | 82° |
| 2026-05-05 13:26 | -1.28173 | 37.14497 | 12841 ft | 311 kts | 101° |
| 2026-05-05 13:26 | -1.29058 | 37.16479 | 13574 ft | 318 kts | 126° |
| 2026-05-05 13:26 | -1.30549 | 37.18128 | 14264 ft | 322 kts | 133° |
| 2026-05-05 13:27 | -1.32161 | 37.19715 | 14886 ft | 327 kts | 134° |
| 2026-05-05 13:27 | -1.33820 | 37.21310 | 15461 ft | 335 kts | 134° |
| 2026-05-05 13:27 | -1.35553 | 37.22977 | 15628 ft | 356 kts | 134° |
| 2026-05-05 13:27 | -1.37382 | 37.24749 | 15741 ft | 377 kts | 134° |
| 2026-05-05 13:28 | -1.39304 | 37.26622 | 15907 ft | 393 kts | 134° |
| 2026-05-05 13:28 | -1.41240 | 37.28518 | 16475 ft | 396 kts | 134° |
| 2026-05-05 13:28 | -1.43197 | 37.30440 | 17235 ft | 393 kts | 134° |
| 2026-05-05 13:28 | -1.45150 | 37.32363 | 17871 ft | 394 kts | 134° |
| 2026-05-05 13:29 | -1.47112 | 37.34297 | 18390 ft | 398 kts | 133° |
| 2026-05-05 13:29 | -1.49091 | 37.36249 | 18860 ft | 401 kts | 133° |
| 2026-05-05 13:29 | -1.51082 | 37.38215 | 19352 ft | 403 kts | 134° |
| 2026-05-05 13:29 | -1.53083 | 37.40190 | 19809 ft | 405 kts | 133° |
| 2026-05-05 13:30 | -1.55093 | 37.42174 | 20307 ft | 407 kts | 133° |
| 2026-05-05 13:30 | -1.57111 | 37.44166 | 20763 ft | 409 kts | 134° |
| 2026-05-05 13:30 | -1.59144 | 37.46172 | 21179 ft | 412 kts | 133° |
| 2026-05-05 13:30 | -1.61193 | 37.48196 | 21629 ft | 414 kts | 134° |
| 2026-05-05 13:31 | -1.63252 | 37.50229 | 22021 ft | 418 kts | 134° |
| 2026-05-05 13:31 | -1.65323 | 37.52273 | 22506 ft | 418 kts | 133° |
| 2026-05-05 13:31 | -1.67397 | 37.54321 | 22895 ft | 421 kts | 134° |
| 2026-05-05 13:31 | -1.69462 | 37.56359 | 23249 ft | 424 kts | 134° |
| 2026-05-05 13:32 | -1.71569 | 37.58440 | 23595 ft | 428 kts | 134° |
| 2026-05-05 13:32 | -1.73694 | 37.60538 | 23921 ft | 429 kts | 134° |
| 2026-05-05 13:32 | -1.75814 | 37.62630 | 24314 ft | 428 kts | 134° |
| 2026-05-05 13:32 | -1.77934 | 37.64725 | 24612 ft | 431 kts | 134° |
| 2026-05-05 13:33 | -1.80073 | 37.66850 | 24829 ft | 435 kts | 134° |
| 2026-05-05 13:33 | -1.82220 | 37.68990 | 25179 ft | 435 kts | 134° |
| 2026-05-05 13:33 | -1.84360 | 37.71126 | 25586 ft | 434 kts | 134° |
| 2026-05-05 13:33 | -1.86501 | 37.73263 | 25866 ft | 437 kts | 134° |
| 2026-05-05 13:34 | -1.88662 | 37.75421 | 26061 ft | 441 kts | 134° |
| 2026-05-05 13:34 | -1.90845 | 37.77599 | 26270 ft | 445 kts | 134° |
| 2026-05-05 13:34 | -1.93035 | 37.79784 | 26666 ft | 444 kts | 134° |
| 2026-05-05 13:34 | -1.95223 | 37.81966 | 26917 ft | 446 kts | 134° |
| 2026-05-05 13:35 | -1.97435 | 37.84173 | 27101 ft | 450 kts | 134° |
| 2026-05-05 13:35 | -1.99655 | 37.86387 | 27407 ft | 451 kts | 134° |
| 2026-05-05 13:35 | -2.01885 | 37.88612 | 27652 ft | 454 kts | 134° |
| 2026-05-05 13:35 | -2.04087 | 37.90808 | 27990 ft | 453 kts | 134° |
| 2026-05-05 13:36 | -2.06321 | 37.93037 | 28221 ft | 455 kts | 135° |
| 2026-05-05 13:36 | -2.08572 | 37.95283 | 28396 ft | 459 kts | 135° |
| 2026-05-05 13:36 | -2.10835 | 37.97540 | 28672 ft | 460 kts | 135° |
| 2026-05-05 13:36 | -2.13103 | 37.99803 | 28950 ft | 460 kts | 134° |
| 2026-05-05 13:37 | -2.15378 | 38.02073 | 29184 ft | 462 kts | 134° |
| 2026-05-05 13:37 | -2.17665 | 38.04355 | 29295 ft | 466 kts | 135° |
| 2026-05-05 13:37 | -2.19971 | 38.06656 | 29461 ft | 469 kts | 135° |
| 2026-05-05 13:37 | -2.22278 | 38.08959 | 29842 ft | 467 kts | 135° |
| 2026-05-05 13:38 | -2.24554 | 38.11230 | 30140 ft | 467 kts | 135° |
| 2026-05-05 13:38 | -2.26854 | 38.13526 | 30329 ft | 468 kts | 135° |
| 2026-05-05 13:38 | -2.29163 | 38.15830 | 30558 ft | 469 kts | 135° |
| 2026-05-05 13:38 | -2.31465 | 38.18127 | 30885 ft | 467 kts | 135° |
| 2026-05-05 13:39 | -2.36070 | 38.22725 | 30901 ft | 467 kts | 135° |
| 2026-05-05 13:39 | -2.40679 | 38.27325 | 30916 ft | 466 kts | 134° |
| 2026-05-05 13:40 | -2.45229 | 38.31868 | 30904 ft | 464 kts | 134° |
| 2026-05-05 13:40 | -2.49797 | 38.36429 | 30898 ft | 463 kts | 134° |
| 2026-05-05 13:41 | -2.54356 | 38.40982 | 30889 ft | 463 kts | 134° |
| 2026-05-05 13:41 | -2.58914 | 38.45534 | 30895 ft | 463 kts | 134° |
| 2026-05-05 13:42 | -2.63473 | 38.50088 | 30898 ft | 463 kts | 134° |
| 2026-05-05 13:42 | -2.65765 | 38.52377 | 30388 ft | 470 kts | 134° |
| 2026-05-05 13:42 | -2.68075 | 38.54686 | 29689 ft | 468 kts | 134° |
| 2026-05-05 13:43 | -2.70377 | 38.56984 | 29008 ft | 464 kts | 134° |
| 2026-05-05 13:43 | -2.72646 | 38.59250 | 28414 ft | 458 kts | 134° |
| 2026-05-05 13:43 | -2.74890 | 38.61491 | 27835 ft | 453 kts | 134° |
| 2026-05-05 13:43 | -2.77108 | 38.63707 | 27266 ft | 448 kts | 134° |
| 2026-05-05 13:44 | -2.79302 | 38.65899 | 26702 ft | 444 kts | 134° |
| 2026-05-05 13:44 | -2.81472 | 38.68067 | 26142 ft | 439 kts | 133° |